sensor_id;sensor_type;location;lat;lon;timestamp;P1;durP1;ratioP1;P2;durP2;ratioP2
77597;SDS011;66756;42.774;23.354;2023-05-14T00:02:19;2.13;;;1.15;;
77597;SDS011;66756;42.774;23.354;2023-05-14T00:04:45;2.67;;;1.10;;
77597;SDS011;66756;42.774;23.354;2023-05-14T00:07:11;2.20;;;0.82;;
77597;SDS011;66756;42.774;23.354;2023-05-14T00:09:37;3.00;;;1.15;;
77597;SDS011;66756;42.774;23.354;2023-05-14T00:12:03;3.22;;;1.60;;
77597;SDS011;66756;42.774;23.354;2023-05-14T00:14:29;2.88;;;1.33;;
77597;SDS011;66756;42.774;23.354;2023-05-14T00:16:55;2.40;;;1.17;;
77597;SDS011;66756;42.774;23.354;2023-05-14T00:19:23;2.10;;;1.05;;
77597;SDS011;66756;42.774;23.354;2023-05-14T00:21:49;2.60;;;1.00;;
77597;SDS011;66756;42.774;23.354;2023-05-14T00:24:15;3.05;;;1.48;;
77597;SDS011;66756;42.774;23.354;2023-05-14T00:26:41;2.97;;;1.05;;
77597;SDS011;66756;42.774;23.354;2023-05-14T00:29:07;2.63;;;1.17;;
77597;SDS011;66756;42.774;23.354;2023-05-14T00:31:33;4.80;;;1.48;;
77597;SDS011;66756;42.774;23.354;2023-05-14T00:33:59;3.20;;;1.33;;
77597;SDS011;66756;42.774;23.354;2023-05-14T00:36:25;2.65;;;1.20;;
77597;SDS011;66756;42.774;23.354;2023-05-14T00:38:51;3.00;;;1.00;;
77597;SDS011;66756;42.774;23.354;2023-05-14T00:41:17;3.25;;;1.33;;
77597;SDS011;66756;42.774;23.354;2023-05-14T00:43:43;2.42;;;1.23;;
77597;SDS011;66756;42.774;23.354;2023-05-14T00:46:09;2.40;;;0.93;;
77597;SDS011;66756;42.774;23.354;2023-05-14T00:48:36;4.60;;;1.75;;
77597;SDS011;66756;42.774;23.354;2023-05-14T00:51:02;3.42;;;1.48;;
77597;SDS011;66756;42.774;23.354;2023-05-14T00:53:28;4.40;;;1.10;;
77597;SDS011;66756;42.774;23.354;2023-05-14T00:55:54;4.63;;;3.17;;
77597;SDS011;66756;42.774;23.354;2023-05-14T00:58:20;3.30;;;1.33;;
77597;SDS011;66756;42.774;23.354;2023-05-14T01:00:46;2.22;;;0.90;;
77597;SDS011;66756;42.774;23.354;2023-05-14T01:03:12;2.55;;;1.17;;
77597;SDS011;66756;42.774;23.354;2023-05-14T01:05:59;2.35;;;1.15;;
77597;SDS011;66756;42.774;23.354;2023-05-14T01:16:08;4.82;;;1.30;;
77597;SDS011;66756;42.774;23.354;2023-05-14T01:18:36;3.03;;;1.23;;
77597;SDS011;66756;42.774;23.354;2023-05-14T01:21:02;2.70;;;1.02;;
77597;SDS011;66756;42.774;23.354;2023-05-14T01:23:28;3.15;;;1.25;;
77597;SDS011;66756;42.774;23.354;2023-05-14T01:25:54;2.50;;;1.10;;
77597;SDS011;66756;42.774;23.354;2023-05-14T01:28:31;1.98;;;1.25;;
77597;SDS011;66756;42.774;23.354;2023-05-14T01:31:00;2.45;;;1.02;;
77597;SDS011;66756;42.774;23.354;2023-05-14T01:33:27;5.57;;;1.95;;
77597;SDS011;66756;42.774;23.354;2023-05-14T01:35:54;9.07;;;3.58;;
77597;SDS011;66756;42.774;23.354;2023-05-14T01:38:20;3.28;;;1.15;;
77597;SDS011;66756;42.774;23.354;2023-05-14T01:40:47;3.80;;;1.83;;
77597;SDS011;66756;42.774;23.354;2023-05-14T01:43:15;4.00;;;1.50;;
77597;SDS011;66756;42.774;23.354;2023-05-14T01:45:42;5.45;;;1.70;;
77597;SDS011;66756;42.774;23.354;2023-05-14T01:48:08;2.15;;;1.02;;
77597;SDS011;66756;42.774;23.354;2023-05-14T01:50:34;2.00;;;0.75;;
77597;SDS011;66756;42.774;23.354;2023-05-14T01:53:00;5.05;;;1.45;;
77597;SDS011;66756;42.774;23.354;2023-05-14T01:55:26;2.53;;;0.90;;
77597;SDS011;66756;42.774;23.354;2023-05-14T01:57:52;2.30;;;0.88;;
77597;SDS011;66756;42.774;23.354;2023-05-14T02:00:19;3.80;;;0.95;;
77597;SDS011;66756;42.774;23.354;2023-05-14T02:02:45;3.15;;;1.08;;
77597;SDS011;66756;42.774;23.354;2023-05-14T02:05:11;1.55;;;0.50;;
77597;SDS011;66756;42.774;23.354;2023-05-14T02:07:38;1.80;;;0.60;;
77597;SDS011;66756;42.774;23.354;2023-05-14T02:10:04;2.60;;;1.00;;
77597;SDS011;66756;42.774;23.354;2023-05-14T02:12:30;2.00;;;1.08;;
77597;SDS011;66756;42.774;23.354;2023-05-14T02:14:56;3.00;;;0.95;;
77597;SDS011;66756;42.774;23.354;2023-05-14T02:17:23;2.58;;;0.95;;
77597;SDS011;66756;42.774;23.354;2023-05-14T02:19:49;3.00;;;1.02;;
77597;SDS011;66756;42.774;23.354;2023-05-14T02:22:15;2.30;;;0.60;;
77597;SDS011;66756;42.774;23.354;2023-05-14T02:24:41;2.00;;;0.93;;
77597;SDS011;66756;42.774;23.354;2023-05-14T02:27:07;1.83;;;0.70;;
77597;SDS011;66756;42.774;23.354;2023-05-14T02:29:33;6.03;;;1.00;;
77597;SDS011;66756;42.774;23.354;2023-05-14T02:31:59;3.88;;;0.93;;
77597;SDS011;66756;42.774;23.354;2023-05-14T02:34:25;2.85;;;2.20;;
77597;SDS011;66756;42.774;23.354;2023-05-14T02:36:51;2.03;;;0.70;;
77597;SDS011;66756;42.774;23.354;2023-05-14T02:39:17;3.75;;;1.13;;
77597;SDS011;66756;42.774;23.354;2023-05-14T02:41:43;2.53;;;0.98;;
77597;SDS011;66756;42.774;23.354;2023-05-14T02:44:09;2.67;;;1.10;;
77597;SDS011;66756;42.774;23.354;2023-05-14T02:46:35;4.80;;;1.73;;
77597;SDS011;66756;42.774;23.354;2023-05-14T02:49:01;2.60;;;0.85;;
77597;SDS011;66756;42.774;23.354;2023-05-14T02:51:27;1.95;;;0.75;;
77597;SDS011;66756;42.774;23.354;2023-05-14T02:53:53;1.95;;;0.70;;
77597;SDS011;66756;42.774;23.354;2023-05-14T02:56:19;1.80;;;0.60;;
77597;SDS011;66756;42.774;23.354;2023-05-14T02:58:46;1.77;;;0.73;;
77597;SDS011;66756;42.774;23.354;2023-05-14T03:01:12;1.85;;;0.73;;
77597;SDS011;66756;42.774;23.354;2023-05-14T03:03:38;3.00;;;0.82;;
77597;SDS011;66756;42.774;23.354;2023-05-14T03:06:04;2.58;;;1.35;;
77597;SDS011;66756;42.774;23.354;2023-05-14T03:08:30;4.18;;;1.33;;
77597;SDS011;66756;42.774;23.354;2023-05-14T03:10:56;2.45;;;1.20;;
77597;SDS011;66756;42.774;23.354;2023-05-14T03:13:22;2.70;;;1.92;;
77597;SDS011;66756;42.774;23.354;2023-05-14T03:15:48;2.42;;;0.70;;
77597;SDS011;66756;42.774;23.354;2023-05-14T03:18:18;2.42;;;0.88;;
77597;SDS011;66756;42.774;23.354;2023-05-14T03:20:44;3.00;;;0.77;;
77597;SDS011;66756;42.774;23.354;2023-05-14T03:23:10;1.95;;;0.60;;
77597;SDS011;66756;42.774;23.354;2023-05-14T03:25:37;1.80;;;0.80;;
77597;SDS011;66756;42.774;23.354;2023-05-14T03:28:03;3.50;;;0.93;;
77597;SDS011;66756;42.774;23.354;2023-05-14T03:30:29;1.70;;;0.60;;
77597;SDS011;66756;42.774;23.354;2023-05-14T03:32:55;1.98;;;0.82;;
77597;SDS011;66756;42.774;23.354;2023-05-14T03:35:21;3.83;;;0.75;;
77597;SDS011;66756;42.774;23.354;2023-05-14T03:37:47;2.75;;;0.82;;
77597;SDS011;66756;42.774;23.354;2023-05-14T03:40:13;2.60;;;1.00;;
77597;SDS011;66756;42.774;23.354;2023-05-14T03:42:39;1.95;;;1.15;;
77597;SDS011;66756;42.774;23.354;2023-05-14T03:45:05;1.75;;;0.65;;
77597;SDS011;66756;42.774;23.354;2023-05-14T03:47:32;2.35;;;0.77;;
77597;SDS011;66756;42.774;23.354;2023-05-14T03:49:58;2.08;;;0.77;;
77597;SDS011;66756;42.774;23.354;2023-05-14T03:52:24;3.53;;;1.50;;
77597;SDS011;66756;42.774;23.354;2023-05-14T03:54:50;3.03;;;1.20;;
77597;SDS011;66756;42.774;23.354;2023-05-14T03:57:16;2.78;;;1.00;;
77597;SDS011;66756;42.774;23.354;2023-05-14T03:59:42;3.03;;;1.23;;
77597;SDS011;66756;42.774;23.354;2023-05-14T04:02:08;2.70;;;1.38;;
77597;SDS011;66756;42.774;23.354;2023-05-14T04:04:34;2.65;;;1.10;;
77597;SDS011;66756;42.774;23.354;2023-05-14T04:07:00;2.30;;;0.80;;
77597;SDS011;66756;42.774;23.354;2023-05-14T04:09:26;4.32;;;1.17;;
77597;SDS011;66756;42.774;23.354;2023-05-14T04:11:52;2.58;;;0.98;;
77597;SDS011;66756;42.774;23.354;2023-05-14T04:14:18;2.95;;;0.70;;
77597;SDS011;66756;42.774;23.354;2023-05-14T04:16:44;4.30;;;1.33;;
77597;SDS011;66756;42.774;23.354;2023-05-14T04:19:09;3.17;;;1.38;;
77597;SDS011;66756;42.774;23.354;2023-05-14T04:21:36;2.67;;;1.15;;
77597;SDS011;66756;42.774;23.354;2023-05-14T04:24:02;4.60;;;1.10;;
77597;SDS011;66756;42.774;23.354;2023-05-14T04:26:28;2.92;;;1.00;;
77597;SDS011;66756;42.774;23.354;2023-05-14T04:28:54;3.63;;;1.48;;
77597;SDS011;66756;42.774;23.354;2023-05-14T04:31:20;2.20;;;1.08;;
77597;SDS011;66756;42.774;23.354;2023-05-14T04:33:46;3.22;;;1.20;;
77597;SDS011;66756;42.774;23.354;2023-05-14T04:36:12;1.42;;;0.95;;
77597;SDS011;66756;42.774;23.354;2023-05-14T04:38:38;2.42;;;1.00;;
77597;SDS011;66756;42.774;23.354;2023-05-14T04:41:05;2.42;;;1.08;;
77597;SDS011;66756;42.774;23.354;2023-05-14T04:43:31;3.03;;;1.05;;
77597;SDS011;66756;42.774;23.354;2023-05-14T04:45:57;4.20;;;1.30;;
77597;SDS011;66756;42.774;23.354;2023-05-14T04:48:23;3.70;;;1.10;;
77597;SDS011;66756;42.774;23.354;2023-05-14T04:50:49;2.28;;;1.02;;
77597;SDS011;66756;42.774;23.354;2023-05-14T04:53:16;3.30;;;0.77;;
77597;SDS011;66756;42.774;23.354;2023-05-14T04:55:42;5.78;;;0.95;;
77597;SDS011;66756;42.774;23.354;2023-05-14T04:58:08;2.90;;;1.08;;
77597;SDS011;66756;42.774;23.354;2023-05-14T05:00:34;3.03;;;1.33;;
77597;SDS011;66756;42.774;23.354;2023-05-14T05:03:01;3.33;;;0.77;;
77597;SDS011;66756;42.774;23.354;2023-05-14T05:05:27;2.63;;;0.90;;
77597;SDS011;66756;42.774;23.354;2023-05-14T05:07:53;3.30;;;0.93;;
77597;SDS011;66756;42.774;23.354;2023-05-14T05:10:19;3.33;;;1.08;;
77597;SDS011;66756;42.774;23.354;2023-05-14T05:12:45;3.88;;;1.30;;
77597;SDS011;66756;42.774;23.354;2023-05-14T05:15:11;4.63;;;1.20;;
77597;SDS011;66756;42.774;23.354;2023-05-14T05:17:37;4.20;;;1.40;;
77597;SDS011;66756;42.774;23.354;2023-05-14T05:20:03;7.35;;;2.20;;
77597;SDS011;66756;42.774;23.354;2023-05-14T05:22:32;3.60;;;1.42;;
77597;SDS011;66756;42.774;23.354;2023-05-14T05:24:58;3.08;;;1.08;;
77597;SDS011;66756;42.774;23.354;2023-05-14T05:27:24;3.75;;;1.65;;
77597;SDS011;66756;42.774;23.354;2023-05-14T05:29:50;3.20;;;1.42;;
77597;SDS011;66756;42.774;23.354;2023-05-14T05:32:16;3.53;;;1.38;;
77597;SDS011;66756;42.774;23.354;2023-05-14T05:34:42;3.17;;;1.95;;
77597;SDS011;66756;42.774;23.354;2023-05-14T05:37:08;5.07;;;2.05;;
77597;SDS011;66756;42.774;23.354;2023-05-14T05:39:36;5.63;;;2.38;;
77597;SDS011;66756;42.774;23.354;2023-05-14T05:42:04;4.22;;;2.20;;
77597;SDS011;66756;42.774;23.354;2023-05-14T05:44:30;4.90;;;2.08;;
77597;SDS011;66756;42.774;23.354;2023-05-14T05:46:56;4.93;;;2.47;;
77597;SDS011;66756;42.774;23.354;2023-05-14T05:49:22;4.13;;;2.03;;
77597;SDS011;66756;42.774;23.354;2023-05-14T05:51:48;5.93;;;2.65;;
77597;SDS011;66756;42.774;23.354;2023-05-14T05:54:14;6.43;;;2.83;;
77597;SDS011;66756;42.774;23.354;2023-05-14T05:56:40;5.47;;;2.60;;
77597;SDS011;66756;42.774;23.354;2023-05-14T05:59:06;5.18;;;2.55;;
77597;SDS011;66756;42.774;23.354;2023-05-14T06:01:32;4.68;;;2.58;;
77597;SDS011;66756;42.774;23.354;2023-05-14T06:03:58;4.55;;;2.50;;
77597;SDS011;66756;42.774;23.354;2023-05-14T06:06:24;4.57;;;2.42;;
77597;SDS011;66756;42.774;23.354;2023-05-14T06:08:50;4.88;;;2.55;;
77597;SDS011;66756;42.774;23.354;2023-05-14T06:11:16;4.85;;;2.75;;
77597;SDS011;66756;42.774;23.354;2023-05-14T06:13:42;4.05;;;1.85;;
77597;SDS011;66756;42.774;23.354;2023-05-14T06:16:08;5.18;;;2.70;;
77597;SDS011;66756;42.774;23.354;2023-05-14T06:18:34;5.32;;;2.95;;
77597;SDS011;66756;42.774;23.354;2023-05-14T06:21:00;3.97;;;2.42;;
77597;SDS011;66756;42.774;23.354;2023-05-14T06:23:26;4.93;;;2.45;;
77597;SDS011;66756;42.774;23.354;2023-05-14T06:25:52;5.78;;;2.70;;
77597;SDS011;66756;42.774;23.354;2023-05-14T06:28:18;4.47;;;2.45;;
77597;SDS011;66756;42.774;23.354;2023-05-14T06:30:44;4.72;;;2.28;;
77597;SDS011;66756;42.774;23.354;2023-05-14T06:33:10;4.53;;;2.70;;
77597;SDS011;66756;42.774;23.354;2023-05-14T06:35:37;3.75;;;2.50;;
77597;SDS011;66756;42.774;23.354;2023-05-14T06:38:03;5.20;;;3.35;;
77597;SDS011;66756;42.774;23.354;2023-05-14T06:40:29;4.93;;;3.08;;
77597;SDS011;66756;42.774;23.354;2023-05-14T06:42:56;4.20;;;2.92;;
77597;SDS011;66756;42.774;23.354;2023-05-14T06:45:22;4.93;;;2.28;;
77597;SDS011;66756;42.774;23.354;2023-05-14T06:47:48;4.07;;;2.75;;
77597;SDS011;66756;42.774;23.354;2023-05-14T06:50:14;4.00;;;2.47;;
77597;SDS011;66756;42.774;23.354;2023-05-14T06:52:40;5.75;;;3.40;;
77597;SDS011;66756;42.774;23.354;2023-05-14T06:55:07;4.65;;;2.70;;
77597;SDS011;66756;42.774;23.354;2023-05-14T06:57:33;3.75;;;2.13;;
77597;SDS011;66756;42.774;23.354;2023-05-14T06:59:59;4.20;;;2.60;;
77597;SDS011;66756;42.774;23.354;2023-05-14T07:02:25;4.38;;;2.47;;
77597;SDS011;66756;42.774;23.354;2023-05-14T07:04:51;4.93;;;2.45;;
77597;SDS011;66756;42.774;23.354;2023-05-14T07:07:17;5.05;;;2.40;;
77597;SDS011;66756;42.774;23.354;2023-05-14T07:09:45;4.78;;;2.70;;
77597;SDS011;66756;42.774;23.354;2023-05-14T07:12:11;5.55;;;2.58;;
77597;SDS011;66756;42.774;23.354;2023-05-14T07:14:37;7.40;;;3.38;;
77597;SDS011;66756;42.774;23.354;2023-05-14T07:17:04;5.25;;;3.53;;
77597;SDS011;66756;42.774;23.354;2023-05-14T07:19:30;5.80;;;2.78;;
77597;SDS011;66756;42.774;23.354;2023-05-14T07:21:56;3.78;;;2.58;;
77597;SDS011;66756;42.774;23.354;2023-05-14T07:24:22;5.75;;;3.25;;
77597;SDS011;66756;42.774;23.354;2023-05-14T07:26:48;7.80;;;3.25;;
77597;SDS011;66756;42.774;23.354;2023-05-14T07:29:15;5.60;;;3.13;;
77597;SDS011;66756;42.774;23.354;2023-05-14T07:31:41;5.68;;;3.22;;
77597;SDS011;66756;42.774;23.354;2023-05-14T07:34:07;5.35;;;3.53;;
77597;SDS011;66756;42.774;23.354;2023-05-14T07:36:34;4.72;;;3.33;;
77597;SDS011;66756;42.774;23.354;2023-05-14T07:39:01;4.82;;;2.78;;
77597;SDS011;66756;42.774;23.354;2023-05-14T07:41:27;5.22;;;3.25;;
77597;SDS011;66756;42.774;23.354;2023-05-14T07:43:53;5.40;;;3.47;;
77597;SDS011;66756;42.774;23.354;2023-05-14T07:46:19;5.88;;;3.60;;
77597;SDS011;66756;42.774;23.354;2023-05-14T07:48:45;7.97;;;4.13;;
77597;SDS011;66756;42.774;23.354;2023-05-14T07:51:11;6.93;;;2.92;;
77597;SDS011;66756;42.774;23.354;2023-05-14T07:53:37;5.57;;;2.35;;
77597;SDS011;66756;42.774;23.354;2023-05-14T07:56:03;5.65;;;3.20;;
77597;SDS011;66756;42.774;23.354;2023-05-14T07:58:29;5.75;;;2.70;;
77597;SDS011;66756;42.774;23.354;2023-05-14T08:00:55;4.95;;;2.75;;
77597;SDS011;66756;42.774;23.354;2023-05-14T08:03:21;5.13;;;3.40;;
77597;SDS011;66756;42.774;23.354;2023-05-14T08:05:48;4.80;;;3.00;;
77597;SDS011;66756;42.774;23.354;2023-05-14T08:08:14;5.30;;;3.33;;
77597;SDS011;66756;42.774;23.354;2023-05-14T08:10:41;4.53;;;3.35;;
77597;SDS011;66756;42.774;23.354;2023-05-14T08:13:07;5.97;;;3.03;;
77597;SDS011;66756;42.774;23.354;2023-05-14T08:15:33;5.60;;;2.30;;
77597;SDS011;66756;42.774;23.354;2023-05-14T08:17:59;4.97;;;2.92;;
77597;SDS011;66756;42.774;23.354;2023-05-14T08:20:28;4.10;;;2.42;;
77597;SDS011;66756;42.774;23.354;2023-05-14T08:22:55;5.13;;;2.35;;
77597;SDS011;66756;42.774;23.354;2023-05-14T08:25:22;5.35;;;2.95;;
77597;SDS011;66756;42.774;23.354;2023-05-14T08:27:48;5.93;;;3.50;;
77597;SDS011;66756;42.774;23.354;2023-05-14T08:30:14;6.10;;;2.92;;
77597;SDS011;66756;42.774;23.354;2023-05-14T08:32:40;7.15;;;3.03;;
77597;SDS011;66756;42.774;23.354;2023-05-14T08:35:06;3.67;;;2.40;;
77597;SDS011;66756;42.774;23.354;2023-05-14T08:37:33;4.20;;;2.55;;
77597;SDS011;66756;42.774;23.354;2023-05-14T08:39:59;8.02;;;3.97;;
77597;SDS011;66756;42.774;23.354;2023-05-14T08:42:25;5.25;;;3.35;;
77597;SDS011;66756;42.774;23.354;2023-05-14T08:44:52;5.45;;;3.08;;
77597;SDS011;66756;42.774;23.354;2023-05-14T08:47:20;5.35;;;2.72;;
77597;SDS011;66756;42.774;23.354;2023-05-14T08:49:47;6.20;;;3.03;;
77597;SDS011;66756;42.774;23.354;2023-05-14T08:52:14;5.10;;;3.22;;
77597;SDS011;66756;42.774;23.354;2023-05-14T08:54:41;4.82;;;2.97;;
77597;SDS011;66756;42.774;23.354;2023-05-14T08:57:08;6.50;;;3.78;;
77597;SDS011;66756;42.774;23.354;2023-05-14T08:59:34;6.70;;;3.03;;
77597;SDS011;66756;42.774;23.354;2023-05-14T09:02:01;5.38;;;3.83;;
77597;SDS011;66756;42.774;23.354;2023-05-14T09:04:28;5.45;;;2.90;;
77597;SDS011;66756;42.774;23.354;2023-05-14T09:06:56;5.32;;;3.17;;
77597;SDS011;66756;42.774;23.354;2023-05-14T09:09:22;7.13;;;2.60;;
77597;SDS011;66756;42.774;23.354;2023-05-14T09:11:48;6.13;;;3.63;;
77597;SDS011;66756;42.774;23.354;2023-05-14T09:14:15;5.15;;;3.60;;
77597;SDS011;66756;42.774;23.354;2023-05-14T09:16:45;6.63;;;3.47;;
77597;SDS011;66756;42.774;23.354;2023-05-14T09:19:12;6.03;;;3.47;;
77597;SDS011;66756;42.774;23.354;2023-05-14T09:21:39;5.72;;;3.92;;
77597;SDS011;66756;42.774;23.354;2023-05-14T09:24:05;5.25;;;3.03;;
77597;SDS011;66756;42.774;23.354;2023-05-14T09:26:32;9.30;;;4.38;;
77597;SDS011;66756;42.774;23.354;2023-05-14T09:28:58;12.77;;;5.75;;
77597;SDS011;66756;42.774;23.354;2023-05-14T09:31:26;18.10;;;6.55;;
77597;SDS011;66756;42.774;23.354;2023-05-14T09:33:52;10.90;;;5.85;;
77597;SDS011;66756;42.774;23.354;2023-05-14T09:36:18;9.93;;;6.03;;
77597;SDS011;66756;42.774;23.354;2023-05-14T09:38:44;9.23;;;4.93;;
77597;SDS011;66756;42.774;23.354;2023-05-14T09:41:10;7.65;;;4.05;;
77597;SDS011;66756;42.774;23.354;2023-05-14T09:43:36;6.15;;;3.42;;
77597;SDS011;66756;42.774;23.354;2023-05-14T09:46:03;4.78;;;2.95;;
77597;SDS011;66756;42.774;23.354;2023-05-14T09:48:29;6.72;;;3.88;;
77597;SDS011;66756;42.774;23.354;2023-05-14T09:50:55;6.13;;;3.75;;
77597;SDS011;66756;42.774;23.354;2023-05-14T09:53:21;8.50;;;3.88;;
77597;SDS011;66756;42.774;23.354;2023-05-14T09:55:47;5.15;;;3.58;;
77597;SDS011;66756;42.774;23.354;2023-05-14T09:58:13;4.30;;;3.30;;
77597;SDS011;66756;42.774;23.354;2023-05-14T10:00:41;5.45;;;3.38;;
77597;SDS011;66756;42.774;23.354;2023-05-14T10:03:08;15.43;;;6.93;;
77597;SDS011;66756;42.774;23.354;2023-05-14T10:05:36;6.28;;;3.72;;
77597;SDS011;66756;42.774;23.354;2023-05-14T10:08:04;7.75;;;4.55;;
77597;SDS011;66756;42.774;23.354;2023-05-14T10:10:30;6.85;;;3.80;;
77597;SDS011;66756;42.774;23.354;2023-05-14T10:12:59;4.80;;;3.15;;
77597;SDS011;66756;42.774;23.354;2023-05-14T10:16:15;4.57;;;3.22;;
77597;SDS011;66756;42.774;23.354;2023-05-14T10:18:15;5.93;;;3.45;;
77597;SDS011;66756;42.774;23.354;2023-05-14T10:20:42;7.35;;;3.67;;
77597;SDS011;66756;42.774;23.354;2023-05-14T10:23:08;6.38;;;3.70;;
77597;SDS011;66756;42.774;23.354;2023-05-14T10:25:35;6.53;;;4.00;;
77597;SDS011;66756;42.774;23.354;2023-05-14T10:28:01;7.80;;;4.20;;
77597;SDS011;66756;42.774;23.354;2023-05-14T10:30:28;7.35;;;4.20;;
77597;SDS011;66756;42.774;23.354;2023-05-14T10:33:13;6.40;;;3.08;;
77597;SDS011;66756;42.774;23.354;2023-05-14T10:35:50;6.20;;;3.90;;
77597;SDS011;66756;42.774;23.354;2023-05-14T10:38:16;5.55;;;3.83;;
77597;SDS011;66756;42.774;23.354;2023-05-14T10:40:42;5.65;;;3.38;;
77597;SDS011;66756;42.774;23.354;2023-05-14T10:43:08;5.32;;;3.47;;
77597;SDS011;66756;42.774;23.354;2023-05-14T10:45:35;5.68;;;4.18;;
77597;SDS011;66756;42.774;23.354;2023-05-14T10:48:01;6.50;;;4.50;;
77597;SDS011;66756;42.774;23.354;2023-05-14T10:50:27;6.60;;;4.88;;
77597;SDS011;66756;42.774;23.354;2023-05-14T10:52:54;6.53;;;4.30;;
77597;SDS011;66756;42.774;23.354;2023-05-14T10:55:21;5.93;;;4.38;;
77597;SDS011;66756;42.774;23.354;2023-05-14T10:57:47;6.00;;;4.07;;
77597;SDS011;66756;42.774;23.354;2023-05-14T11:00:14;6.45;;;4.00;;
77597;SDS011;66756;42.774;23.354;2023-05-14T11:02:41;6.28;;;3.72;;
77597;SDS011;66756;42.774;23.354;2023-05-14T11:05:14;4.53;;;3.03;;
77597;SDS011;66756;42.774;23.354;2023-05-14T11:07:45;9.75;;;6.00;;
77597;SDS011;66756;42.774;23.354;2023-05-14T11:10:17;8.90;;;4.85;;
77597;SDS011;66756;42.774;23.354;2023-05-14T11:12:44;7.50;;;5.50;;
77597;SDS011;66756;42.774;23.354;2023-05-14T11:15:18;6.80;;;5.22;;
77597;SDS011;66756;42.774;23.354;2023-05-14T11:17:44;6.85;;;4.38;;
77597;SDS011;66756;42.774;23.354;2023-05-14T11:20:11;5.57;;;4.60;;
77597;SDS011;66756;42.774;23.354;2023-05-14T11:22:38;6.78;;;4.32;;
77597;SDS011;66756;42.774;23.354;2023-05-14T11:25:04;6.03;;;4.10;;
77597;SDS011;66756;42.774;23.354;2023-05-14T11:27:32;6.32;;;4.35;;
77597;SDS011;66756;42.774;23.354;2023-05-14T11:29:58;6.00;;;4.30;;
77597;SDS011;66756;42.774;23.354;2023-05-14T11:32:25;6.55;;;4.65;;
77597;SDS011;66756;42.774;23.354;2023-05-14T11:34:51;6.32;;;4.38;;
77597;SDS011;66756;42.774;23.354;2023-05-14T11:37:17;6.70;;;4.88;;
77597;SDS011;66756;42.774;23.354;2023-05-14T11:42:13;5.32;;;4.00;;
77597;SDS011;66756;42.774;23.354;2023-05-14T11:44:41;5.35;;;3.83;;
77597;SDS011;66756;42.774;23.354;2023-05-14T11:47:10;6.10;;;4.72;;
77597;SDS011;66756;42.774;23.354;2023-05-14T11:49:37;5.30;;;4.07;;
77597;SDS011;66756;42.774;23.354;2023-05-14T11:52:04;5.22;;;3.60;;
77597;SDS011;66756;42.774;23.354;2023-05-14T11:54:30;5.57;;;3.85;;
77597;SDS011;66756;42.774;23.354;2023-05-14T11:56:58;4.80;;;4.18;;
77597;SDS011;66756;42.774;23.354;2023-05-14T11:59:28;6.38;;;4.28;;
77597;SDS011;66756;42.774;23.354;2023-05-14T12:01:54;5.15;;;3.78;;
77597;SDS011;66756;42.774;23.354;2023-05-14T12:04:20;6.35;;;4.13;;
77597;SDS011;66756;42.774;23.354;2023-05-14T12:06:50;6.55;;;4.65;;
77597;SDS011;66756;42.774;23.354;2023-05-14T12:09:16;6.25;;;4.63;;
77597;SDS011;66756;42.774;23.354;2023-05-14T12:11:43;7.75;;;4.80;;
77597;SDS011;66756;42.774;23.354;2023-05-14T12:14:11;6.55;;;4.20;;
77597;SDS011;66756;42.774;23.354;2023-05-14T12:16:38;6.40;;;4.40;;
77597;SDS011;66756;42.774;23.354;2023-05-14T12:19:06;6.82;;;4.07;;
77597;SDS011;66756;42.774;23.354;2023-05-14T12:21:33;7.00;;;4.60;;
77597;SDS011;66756;42.774;23.354;2023-05-14T12:23:59;6.93;;;4.85;;
77597;SDS011;66756;42.774;23.354;2023-05-14T12:26:25;7.82;;;4.68;;
77597;SDS011;66756;42.774;23.354;2023-05-14T12:29:01;5.95;;;4.15;;
77597;SDS011;66756;42.774;23.354;2023-05-14T12:31:28;6.28;;;4.30;;
77597;SDS011;66756;42.774;23.354;2023-05-14T12:33:54;7.97;;;4.85;;
77597;SDS011;66756;42.774;23.354;2023-05-14T12:36:20;8.38;;;5.57;;
77597;SDS011;66756;42.774;23.354;2023-05-14T12:38:47;9.30;;;6.15;;
77597;SDS011;66756;42.774;23.354;2023-05-14T12:41:14;7.97;;;5.03;;
77597;SDS011;66756;42.774;23.354;2023-05-14T12:43:43;8.07;;;5.40;;
77597;SDS011;66756;42.774;23.354;2023-05-14T12:46:09;7.22;;;5.38;;
77597;SDS011;66756;42.774;23.354;2023-05-14T12:48:35;8.23;;;6.32;;
77597;SDS011;66756;42.774;23.354;2023-05-14T12:51:01;8.30;;;5.28;;
77597;SDS011;66756;42.774;23.354;2023-05-14T12:53:28;10.25;;;5.65;;
77597;SDS011;66756;42.774;23.354;2023-05-14T12:55:54;9.77;;;6.55;;
77597;SDS011;66756;42.774;23.354;2023-05-14T12:58:21;8.77;;;6.00;;
77597;SDS011;66756;42.774;23.354;2023-05-14T13:00:47;8.80;;;6.00;;
77597;SDS011;66756;42.774;23.354;2023-05-14T13:03:13;10.27;;;6.10;;
77597;SDS011;66756;42.774;23.354;2023-05-14T13:05:39;10.68;;;6.97;;
77597;SDS011;66756;42.774;23.354;2023-05-14T13:08:05;8.35;;;6.13;;
77597;SDS011;66756;42.774;23.354;2023-05-14T13:10:31;10.15;;;6.35;;
77597;SDS011;66756;42.774;23.354;2023-05-14T13:12:57;9.60;;;6.03;;
77597;SDS011;66756;42.774;23.354;2023-05-14T13:15:23;10.07;;;6.05;;
77597;SDS011;66756;42.774;23.354;2023-05-14T13:17:49;11.88;;;7.03;;
77597;SDS011;66756;42.774;23.354;2023-05-14T13:20:15;11.32;;;6.72;;
77597;SDS011;66756;42.774;23.354;2023-05-14T13:22:42;10.40;;;6.60;;
77597;SDS011;66756;42.774;23.354;2023-05-14T13:25:08;9.50;;;5.78;;
77597;SDS011;66756;42.774;23.354;2023-05-14T13:27:34;10.32;;;6.78;;
77597;SDS011;66756;42.774;23.354;2023-05-14T13:30:01;12.63;;;6.63;;
77597;SDS011;66756;42.774;23.354;2023-05-14T13:32:28;9.57;;;7.03;;
77597;SDS011;66756;42.774;23.354;2023-05-14T13:34:54;10.60;;;6.95;;
77597;SDS011;66756;42.774;23.354;2023-05-14T13:37:20;11.75;;;7.13;;
77597;SDS011;66756;42.774;23.354;2023-05-14T13:39:46;8.75;;;5.35;;
77597;SDS011;66756;42.774;23.354;2023-05-14T13:42:12;9.65;;;6.55;;
77597;SDS011;66756;42.774;23.354;2023-05-14T13:44:38;10.63;;;6.53;;
77597;SDS011;66756;42.774;23.354;2023-05-14T13:47:05;8.93;;;6.63;;
77597;SDS011;66756;42.774;23.354;2023-05-14T13:49:31;10.38;;;7.28;;
77597;SDS011;66756;42.774;23.354;2023-05-14T13:51:57;10.07;;;7.20;;
77597;SDS011;66756;42.774;23.354;2023-05-14T13:54:23;11.77;;;7.53;;
77597;SDS011;66756;42.774;23.354;2023-05-14T13:56:49;9.70;;;6.57;;
77597;SDS011;66756;42.774;23.354;2023-05-14T13:59:16;9.43;;;6.72;;
77597;SDS011;66756;42.774;23.354;2023-05-14T14:01:42;10.77;;;7.13;;
77597;SDS011;66756;42.774;23.354;2023-05-14T14:04:08;10.98;;;6.20;;
77597;SDS011;66756;42.774;23.354;2023-05-14T14:06:34;9.30;;;6.38;;
77597;SDS011;66756;42.774;23.354;2023-05-14T14:09:00;12.70;;;7.45;;
77597;SDS011;66756;42.774;23.354;2023-05-14T14:11:26;10.68;;;6.78;;
77597;SDS011;66756;42.774;23.354;2023-05-14T14:13:52;11.55;;;7.47;;
77597;SDS011;66756;42.774;23.354;2023-05-14T14:16:18;8.65;;;6.82;;
77597;SDS011;66756;42.774;23.354;2023-05-14T14:18:44;10.98;;;6.57;;
77597;SDS011;66756;42.774;23.354;2023-05-14T14:21:10;8.73;;;6.43;;
77597;SDS011;66756;42.774;23.354;2023-05-14T14:23:36;11.10;;;6.57;;
77597;SDS011;66756;42.774;23.354;2023-05-14T14:26:03;10.25;;;7.30;;
77597;SDS011;66756;42.774;23.354;2023-05-14T14:28:29;10.30;;;6.60;;
77597;SDS011;66756;42.774;23.354;2023-05-14T14:30:55;10.50;;;6.72;;
77597;SDS011;66756;42.774;23.354;2023-05-14T14:33:21;9.32;;;6.82;;
77597;SDS011;66756;42.774;23.354;2023-05-14T14:35:47;11.80;;;7.32;;
77597;SDS011;66756;42.774;23.354;2023-05-14T14:38:13;10.40;;;7.13;;
77597;SDS011;66756;42.774;23.354;2023-05-14T14:40:39;11.05;;;7.05;;